sensor_id;sensor_type;location;lat;lon;timestamp;P1;durP1;ratioP1;P2;durP2;ratioP2
16199;SDS011;8207;52.494;4.654;2023-03-14T00:01:33;25.37;;;5.07;;
16199;SDS011;8207;52.494;4.654;2023-03-14T00:04:00;26.53;;;4.53;;
16199;SDS011;8207;52.494;4.654;2023-03-14T00:06:30;25.73;;;5.77;;
16199;SDS011;8207;52.494;4.654;2023-03-14T00:08:57;25.33;;;4.63;;
16199;SDS011;8207;52.494;4.654;2023-03-14T00:11:24;15.73;;;4.30;;
16199;SDS011;8207;52.494;4.654;2023-03-14T00:13:52;25.37;;;4.77;;
16199;SDS011;8207;52.494;4.654;2023-03-14T00:16:19;20.47;;;4.80;;
16199;SDS011;8207;52.494;4.654;2023-03-14T00:18:47;17.77;;;4.30;;
16199;SDS011;8207;52.494;4.654;2023-03-14T00:21:14;19.47;;;6.07;;
16199;SDS011;8207;52.494;4.654;2023-03-14T00:23:41;25.23;;;4.90;;
16199;SDS011;8207;52.494;4.654;2023-03-14T00:26:09;28.63;;;5.37;;
16199;SDS011;8207;52.494;4.654;2023-03-14T00:28:38;25.67;;;4.70;;
16199;SDS011;8207;52.494;4.654;2023-03-14T00:31:07;17.23;;;5.40;;
16199;SDS011;8207;52.494;4.654;2023-03-14T00:33:35;19.63;;;4.53;;
16199;SDS011;8207;52.494;4.654;2023-03-14T00:36:03;21.67;;;4.63;;
16199;SDS011;8207;52.494;4.654;2023-03-14T00:38:34;27.97;;;5.63;;
16199;SDS011;8207;52.494;4.654;2023-03-14T00:41:02;24.13;;;4.77;;
16199;SDS011;8207;52.494;4.654;2023-03-14T00:43:30;17.93;;;4.67;;
16199;SDS011;8207;52.494;4.654;2023-03-14T00:45:57;19.57;;;4.73;;
16199;SDS011;8207;52.494;4.654;2023-03-14T00:48:26;20.23;;;3.63;;
16199;SDS011;8207;52.494;4.654;2023-03-14T00:50:53;24.40;;;4.50;;
16199;SDS011;8207;52.494;4.654;2023-03-14T00:53:20;25.13;;;4.90;;
16199;SDS011;8207;52.494;4.654;2023-03-14T00:55:47;23.53;;;4.97;;
16199;SDS011;8207;52.494;4.654;2023-03-14T00:58:15;21.60;;;5.27;;
16199;SDS011;8207;52.494;4.654;2023-03-14T01:00:44;31.07;;;5.70;;
16199;SDS011;8207;52.494;4.654;2023-03-14T01:03:11;23.67;;;5.57;;
16199;SDS011;8207;52.494;4.654;2023-03-14T01:05:41;21.30;;;4.33;;
16199;SDS011;8207;52.494;4.654;2023-03-14T01:08:08;20.27;;;4.47;;
16199;SDS011;8207;52.494;4.654;2023-03-14T01:10:38;20.17;;;4.30;;
16199;SDS011;8207;52.494;4.654;2023-03-14T01:13:05;31.23;;;6.10;;
16199;SDS011;8207;52.494;4.654;2023-03-14T01:15:32;26.80;;;6.13;;
16199;SDS011;8207;52.494;4.654;2023-03-14T01:17:59;24.63;;;4.50;;
16199;SDS011;8207;52.494;4.654;2023-03-14T01:20:26;26.63;;;6.93;;
16199;SDS011;8207;52.494;4.654;2023-03-14T01:22:55;28.30;;;5.00;;
16199;SDS011;8207;52.494;4.654;2023-03-14T01:25:22;31.27;;;7.13;;
16199;SDS011;8207;52.494;4.654;2023-03-14T01:27:49;34.77;;;6.10;;
16199;SDS011;8207;52.494;4.654;2023-03-14T01:30:16;37.93;;;7.10;;
16199;SDS011;8207;52.494;4.654;2023-03-14T01:32:42;22.20;;;5.33;;
16199;SDS011;8207;52.494;4.654;2023-03-14T01:35:09;25.97;;;6.33;;
16199;SDS011;8207;52.494;4.654;2023-03-14T01:37:36;36.50;;;7.63;;
16199;SDS011;8207;52.494;4.654;2023-03-14T01:40:06;29.60;;;6.10;;
16199;SDS011;8207;52.494;4.654;2023-03-14T01:42:36;33.80;;;5.97;;
16199;SDS011;8207;52.494;4.654;2023-03-14T01:45:03;28.17;;;6.63;;
16199;SDS011;8207;52.494;4.654;2023-03-14T01:47:30;33.00;;;6.17;;
16199;SDS011;8207;52.494;4.654;2023-03-14T01:49:58;29.67;;;6.20;;
16199;SDS011;8207;52.494;4.654;2023-03-14T01:52:29;34.10;;;8.00;;
16199;SDS011;8207;52.494;4.654;2023-03-14T01:55:01;33.57;;;7.63;;
16199;SDS011;8207;52.494;4.654;2023-03-14T01:57:33;31.30;;;6.53;;
16199;SDS011;8207;52.494;4.654;2023-03-14T02:00:04;37.07;;;7.43;;
16199;SDS011;8207;52.494;4.654;2023-03-14T02:02:36;35.97;;;6.50;;
16199;SDS011;8207;52.494;4.654;2023-03-14T02:05:06;37.70;;;6.83;;
16199;SDS011;8207;52.494;4.654;2023-03-14T02:07:33;26.40;;;5.90;;
16199;SDS011;8207;52.494;4.654;2023-03-14T02:10:06;41.23;;;8.30;;
16199;SDS011;8207;52.494;4.654;2023-03-14T02:12:35;27.07;;;5.57;;
16199;SDS011;8207;52.494;4.654;2023-03-14T02:15:04;33.33;;;5.87;;
16199;SDS011;8207;52.494;4.654;2023-03-14T02:17:31;36.53;;;6.97;;
16199;SDS011;8207;52.494;4.654;2023-03-14T02:22:52;34.93;;;7.37;;
16199;SDS011;8207;52.494;4.654;2023-03-14T02:25:22;35.53;;;6.00;;
16199;SDS011;8207;52.494;4.654;2023-03-14T02:27:58;35.43;;;5.67;;
16199;SDS011;8207;52.494;4.654;2023-03-14T02:30:27;34.57;;;5.80;;
16199;SDS011;8207;52.494;4.654;2023-03-14T02:32:57;25.97;;;5.40;;
16199;SDS011;8207;52.494;4.654;2023-03-14T02:35:27;29.07;;;6.97;;
16199;SDS011;8207;52.494;4.654;2023-03-14T02:38:03;33.83;;;5.47;;
16199;SDS011;8207;52.494;4.654;2023-03-14T02:40:37;26.67;;;6.53;;
16199;SDS011;8207;52.494;4.654;2023-03-14T02:43:05;24.27;;;6.10;;
16199;SDS011;8207;52.494;4.654;2023-03-14T02:45:34;28.87;;;5.77;;
16199;SDS011;8207;52.494;4.654;2023-03-14T02:48:07;33.87;;;5.23;;
16199;SDS011;8207;52.494;4.654;2023-03-14T02:50:39;32.37;;;4.90;;
16199;SDS011;8207;52.494;4.654;2023-03-14T02:53:06;32.83;;;6.03;;
16199;SDS011;8207;52.494;4.654;2023-03-14T02:55:33;28.53;;;5.27;;
16199;SDS011;8207;52.494;4.654;2023-03-14T02:58:00;26.50;;;5.40;;
16199;SDS011;8207;52.494;4.654;2023-03-14T03:00:29;22.43;;;5.10;;
16199;SDS011;8207;52.494;4.654;2023-03-14T03:02:56;26.20;;;5.57;;
16199;SDS011;8207;52.494;4.654;2023-03-14T03:05:23;18.20;;;4.37;;
16199;SDS011;8207;52.494;4.654;2023-03-14T03:07:50;23.17;;;4.87;;
16199;SDS011;8207;52.494;4.654;2023-03-14T03:10:17;29.50;;;5.60;;
16199;SDS011;8207;52.494;4.654;2023-03-14T03:12:45;22.93;;;4.83;;
16199;SDS011;8207;52.494;4.654;2023-03-14T03:15:12;21.50;;;4.17;;
16199;SDS011;8207;52.494;4.654;2023-03-14T03:17:40;24.90;;;5.63;;
16199;SDS011;8207;52.494;4.654;2023-03-14T03:20:07;16.07;;;3.50;;
16199;SDS011;8207;52.494;4.654;2023-03-14T03:22:35;23.47;;;4.13;;
16199;SDS011;8207;52.494;4.654;2023-03-14T03:25:03;21.67;;;4.47;;
16199;SDS011;8207;52.494;4.654;2023-03-14T03:27:32;19.80;;;3.77;;
16199;SDS011;8207;52.494;4.654;2023-03-14T03:30:00;22.00;;;4.40;;
16199;SDS011;8207;52.494;4.654;2023-03-14T03:32:28;22.90;;;4.67;;
16199;SDS011;8207;52.494;4.654;2023-03-14T03:34:57;21.00;;;4.50;;
16199;SDS011;8207;52.494;4.654;2023-03-14T03:37:23;23.07;;;4.70;;
16199;SDS011;8207;52.494;4.654;2023-03-14T03:39:51;19.90;;;3.97;;
16199;SDS011;8207;52.494;4.654;2023-03-14T03:42:18;21.03;;;4.37;;
16199;SDS011;8207;52.494;4.654;2023-03-14T03:44:45;26.73;;;4.73;;
16199;SDS011;8207;52.494;4.654;2023-03-14T03:47:12;23.63;;;4.57;;
16199;SDS011;8207;52.494;4.654;2023-03-14T03:49:39;21.63;;;5.13;;
16199;SDS011;8207;52.494;4.654;2023-03-14T03:52:07;16.53;;;3.77;;
16199;SDS011;8207;52.494;4.654;2023-03-14T03:54:35;18.57;;;4.80;;
16199;SDS011;8207;52.494;4.654;2023-03-14T03:57:02;20.23;;;4.80;;
16199;SDS011;8207;52.494;4.654;2023-03-14T03:59:29;23.77;;;4.57;;
16199;SDS011;8207;52.494;4.654;2023-03-14T04:01:56;18.10;;;4.13;;
16199;SDS011;8207;52.494;4.654;2023-03-14T04:04:23;26.13;;;6.10;;
16199;SDS011;8207;52.494;4.654;2023-03-14T04:06:50;13.13;;;5.47;;
16199;SDS011;8207;52.494;4.654;2023-03-14T04:09:18;17.93;;;4.53;;
16199;SDS011;8207;52.494;4.654;2023-03-14T04:11:45;18.37;;;5.37;;
16199;SDS011;8207;52.494;4.654;2023-03-14T04:14:12;20.40;;;5.00;;
16199;SDS011;8207;52.494;4.654;2023-03-14T04:16:39;24.47;;;5.73;;
16199;SDS011;8207;52.494;4.654;2023-03-14T04:19:06;30.10;;;7.20;;
16199;SDS011;8207;52.494;4.654;2023-03-14T04:21:33;17.13;;;4.93;;
16199;SDS011;8207;52.494;4.654;2023-03-14T04:24:00;23.47;;;6.47;;
16199;SDS011;8207;52.494;4.654;2023-03-14T04:26:28;23.67;;;6.40;;
16199;SDS011;8207;52.494;4.654;2023-03-14T04:28:55;21.00;;;5.40;;
16199;SDS011;8207;52.494;4.654;2023-03-14T04:31:22;19.03;;;5.73;;
16199;SDS011;8207;52.494;4.654;2023-03-14T04:33:49;26.27;;;6.50;;
16199;SDS011;8207;52.494;4.654;2023-03-14T04:36:16;31.53;;;7.00;;
16199;SDS011;8207;52.494;4.654;2023-03-14T04:38:43;17.77;;;5.63;;
16199;SDS011;8207;52.494;4.654;2023-03-14T04:41:09;19.97;;;5.93;;
16199;SDS011;8207;52.494;4.654;2023-03-14T04:43:38;26.70;;;7.40;;
16199;SDS011;8207;52.494;4.654;2023-03-14T04:46:05;24.70;;;6.20;;
16199;SDS011;8207;52.494;4.654;2023-03-14T04:48:32;29.00;;;6.60;;
16199;SDS011;8207;52.494;4.654;2023-03-14T04:50:59;24.53;;;6.47;;
16199;SDS011;8207;52.494;4.654;2023-03-14T04:53:26;30.47;;;7.10;;
16199;SDS011;8207;52.494;4.654;2023-03-14T04:55:54;32.50;;;6.27;;
16199;SDS011;8207;52.494;4.654;2023-03-14T04:58:21;25.73;;;7.00;;
16199;SDS011;8207;52.494;4.654;2023-03-14T05:00:50;26.57;;;6.80;;
16199;SDS011;8207;52.494;4.654;2023-03-14T05:03:17;30.67;;;6.63;;
16199;SDS011;8207;52.494;4.654;2023-03-14T05:05:45;24.23;;;5.57;;
16199;SDS011;8207;52.494;4.654;2023-03-14T05:08:12;30.50;;;6.67;;
16199;SDS011;8207;52.494;4.654;2023-03-14T05:10:39;27.70;;;8.33;;
16199;SDS011;8207;52.494;4.654;2023-03-14T05:13:06;34.33;;;6.70;;
16199;SDS011;8207;52.494;4.654;2023-03-14T05:15:33;25.73;;;5.77;;
16199;SDS011;8207;52.494;4.654;2023-03-14T05:18:01;20.73;;;4.07;;
16199;SDS011;8207;52.494;4.654;2023-03-14T05:20:28;17.07;;;3.03;;
16199;SDS011;8207;52.494;4.654;2023-03-14T05:22:56;15.63;;;3.00;;
16199;SDS011;8207;52.494;4.654;2023-03-14T05:25:23;16.03;;;2.63;;
16199;SDS011;8207;52.494;4.654;2023-03-14T05:27:49;13.37;;;3.10;;
16199;SDS011;8207;52.494;4.654;2023-03-14T05:30:19;15.50;;;3.13;;
16199;SDS011;8207;52.494;4.654;2023-03-14T05:32:46;18.40;;;2.63;;
16199;SDS011;8207;52.494;4.654;2023-03-14T05:35:15;8.17;;;1.80;;
16199;SDS011;8207;52.494;4.654;2023-03-14T05:37:42;10.90;;;2.40;;
16199;SDS011;8207;52.494;4.654;2023-03-14T05:40:09;11.27;;;2.80;;
16199;SDS011;8207;52.494;4.654;2023-03-14T05:42:37;10.83;;;2.13;;
16199;SDS011;8207;52.494;4.654;2023-03-14T05:45:04;12.20;;;3.03;;
16199;SDS011;8207;52.494;4.654;2023-03-14T05:47:31;13.77;;;1.77;;
16199;SDS011;8207;52.494;4.654;2023-03-14T05:49:58;7.50;;;1.93;;
16199;SDS011;8207;52.494;4.654;2023-03-14T05:52:27;9.50;;;1.73;;
16199;SDS011;8207;52.494;4.654;2023-03-14T05:54:53;11.17;;;1.67;;
16199;SDS011;8207;52.494;4.654;2023-03-14T05:57:20;8.20;;;2.10;;
16199;SDS011;8207;52.494;4.654;2023-03-14T05:59:47;15.93;;;2.80;;
16199;SDS011;8207;52.494;4.654;2023-03-14T06:02:14;10.03;;;2.17;;
16199;SDS011;8207;52.494;4.654;2023-03-14T06:04:41;19.30;;;5.17;;
16199;SDS011;8207;52.494;4.654;2023-03-14T06:07:08;12.43;;;2.40;;
16199;SDS011;8207;52.494;4.654;2023-03-14T06:09:36;9.73;;;2.47;;
16199;SDS011;8207;52.494;4.654;2023-03-14T06:12:04;9.47;;;1.83;;
16199;SDS011;8207;52.494;4.654;2023-03-14T06:14:32;8.37;;;2.07;;
16199;SDS011;8207;52.494;4.654;2023-03-14T06:16:59;10.33;;;2.33;;
16199;SDS011;8207;52.494;4.654;2023-03-14T06:19:25;21.17;;;3.93;;
16199;SDS011;8207;52.494;4.654;2023-03-14T06:21:52;9.10;;;1.57;;
16199;SDS011;8207;52.494;4.654;2023-03-14T06:24:19;9.67;;;2.90;;
16199;SDS011;8207;52.494;4.654;2023-03-14T06:26:47;14.00;;;2.23;;
16199;SDS011;8207;52.494;4.654;2023-03-14T06:29:14;18.67;;;2.43;;
16199;SDS011;8207;52.494;4.654;2023-03-14T06:31:41;10.10;;;2.20;;
16199;SDS011;8207;52.494;4.654;2023-03-14T06:34:08;8.37;;;2.00;;
16199;SDS011;8207;52.494;4.654;2023-03-14T06:36:35;6.73;;;1.30;;
16199;SDS011;8207;52.494;4.654;2023-03-14T06:39:02;11.47;;;2.03;;
16199;SDS011;8207;52.494;4.654;2023-03-14T06:41:29;8.57;;;1.70;;
16199;SDS011;8207;52.494;4.654;2023-03-14T06:43:57;10.27;;;1.73;;
16199;SDS011;8207;52.494;4.654;2023-03-14T06:46:24;12.87;;;2.17;;
16199;SDS011;8207;52.494;4.654;2023-03-14T06:48:51;11.53;;;3.00;;
16199;SDS011;8207;52.494;4.654;2023-03-14T06:51:18;6.73;;;2.27;;
16199;SDS011;8207;52.494;4.654;2023-03-14T06:53:45;9.60;;;2.70;;
16199;SDS011;8207;52.494;4.654;2023-03-14T06:56:12;12.97;;;2.90;;
16199;SDS011;8207;52.494;4.654;2023-03-14T06:58:39;11.83;;;2.43;;
16199;SDS011;8207;52.494;4.654;2023-03-14T07:01:10;12.47;;;2.50;;
16199;SDS011;8207;52.494;4.654;2023-03-14T07:03:46;13.10;;;2.40;;
16199;SDS011;8207;52.494;4.654;2023-03-14T07:06:12;13.93;;;2.30;;
16199;SDS011;8207;52.494;4.654;2023-03-14T07:08:39;14.17;;;2.83;;
16199;SDS011;8207;52.494;4.654;2023-03-14T07:11:07;9.13;;;2.13;;
16199;SDS011;8207;52.494;4.654;2023-03-14T07:13:35;11.00;;;2.73;;
16199;SDS011;8207;52.494;4.654;2023-03-14T07:16:02;6.40;;;1.50;;
16199;SDS011;8207;52.494;4.654;2023-03-14T07:18:30;6.57;;;1.60;;
16199;SDS011;8207;52.494;4.654;2023-03-14T07:20:57;6.00;;;1.50;;
16199;SDS011;8207;52.494;4.654;2023-03-14T07:23:24;14.87;;;2.47;;
16199;SDS011;8207;52.494;4.654;2023-03-14T07:25:51;9.53;;;2.23;;
16199;SDS011;8207;52.494;4.654;2023-03-14T07:28:18;3.53;;;1.43;;
16199;SDS011;8207;52.494;4.654;2023-03-14T07:30:46;5.47;;;1.30;;
16199;SDS011;8207;52.494;4.654;2023-03-14T07:33:13;7.93;;;1.40;;
16199;SDS011;8207;52.494;4.654;2023-03-14T07:35:41;6.47;;;1.53;;
16199;SDS011;8207;52.494;4.654;2023-03-14T07:38:08;12.23;;;1.70;;
16199;SDS011;8207;52.494;4.654;2023-03-14T07:40:35;7.90;;;1.53;;
16199;SDS011;8207;52.494;4.654;2023-03-14T07:43:02;6.27;;;1.40;;
16199;SDS011;8207;52.494;4.654;2023-03-14T07:45:28;5.23;;;1.40;;
16199;SDS011;8207;52.494;4.654;2023-03-14T07:47:55;5.50;;;1.30;;
16199;SDS011;8207;52.494;4.654;2023-03-14T07:50:22;8.73;;;1.77;;
16199;SDS011;8207;52.494;4.654;2023-03-14T07:52:51;7.03;;;1.73;;
16199;SDS011;8207;52.494;4.654;2023-03-14T07:55:18;10.43;;;1.80;;
16199;SDS011;8207;52.494;4.654;2023-03-14T07:57:45;11.63;;;2.97;;
16199;SDS011;8207;52.494;4.654;2023-03-14T08:00:12;12.73;;;2.50;;
16199;SDS011;8207;52.494;4.654;2023-03-14T08:05:38;8.43;;;1.70;;
16199;SDS011;8207;52.494;4.654;2023-03-14T08:08:08;10.23;;;2.43;;
16199;SDS011;8207;52.494;4.654;2023-03-14T08:10:35;9.83;;;3.23;;
16199;SDS011;8207;52.494;4.654;2023-03-14T08:13:02;11.50;;;2.40;;
16199;SDS011;8207;52.494;4.654;2023-03-14T08:15:29;11.17;;;3.10;;
16199;SDS011;8207;52.494;4.654;2023-03-14T08:17:57;18.37;;;3.03;;
16199;SDS011;8207;52.494;4.654;2023-03-14T08:20:31;15.10;;;2.27;;
16199;SDS011;8207;52.494;4.654;2023-03-14T08:22:58;14.23;;;3.27;;
16199;SDS011;8207;52.494;4.654;2023-03-14T08:25:30;14.97;;;2.50;;
16199;SDS011;8207;52.494;4.654;2023-03-14T08:27:58;17.13;;;3.40;;
16199;SDS011;8207;52.494;4.654;2023-03-14T08:30:25;14.30;;;2.57;;
16199;SDS011;8207;52.494;4.654;2023-03-14T08:32:52;17.20;;;3.77;;
16199;SDS011;8207;52.494;4.654;2023-03-14T08:35:19;14.67;;;2.83;;
16199;SDS011;8207;52.494;4.654;2023-03-14T08:37:46;17.47;;;3.60;;
16199;SDS011;8207;52.494;4.654;2023-03-14T08:40:13;18.80;;;4.50;;
16199;SDS011;8207;52.494;4.654;2023-03-14T08:42:43;16.93;;;3.40;;
16199;SDS011;8207;52.494;4.654;2023-03-14T08:45:11;10.20;;;2.70;;
16199;SDS011;8207;52.494;4.654;2023-03-14T08:47:39;15.47;;;3.40;;
16199;SDS011;8207;52.494;4.654;2023-03-14T08:50:07;13.40;;;2.93;;
16199;SDS011;8207;52.494;4.654;2023-03-14T08:52:35;10.97;;;2.50;;
16199;SDS011;8207;52.494;4.654;2023-03-14T08:55:03;19.50;;;4.43;;
16199;SDS011;8207;52.494;4.654;2023-03-14T08:57:30;21.03;;;4.20;;
16199;SDS011;8207;52.494;4.654;2023-03-14T08:59:59;14.90;;;2.83;;
16199;SDS011;8207;52.494;4.654;2023-03-14T09:02:26;15.70;;;3.77;;
16199;SDS011;8207;52.494;4.654;2023-03-14T09:04:53;19.33;;;3.40;;
16199;SDS011;8207;52.494;4.654;2023-03-14T09:07:20;24.43;;;3.77;;
16199;SDS011;8207;52.494;4.654;2023-03-14T09:09:47;17.80;;;3.60;;
16199;SDS011;8207;52.494;4.654;2023-03-14T09:12:14;25.13;;;4.00;;
16199;SDS011;8207;52.494;4.654;2023-03-14T09:14:41;24.90;;;5.70;;
16199;SDS011;8207;52.494;4.654;2023-03-14T09:17:09;16.20;;;4.37;;
16199;SDS011;8207;52.494;4.654;2023-03-14T09:19:36;31.87;;;5.37;;
16199;SDS011;8207;52.494;4.654;2023-03-14T09:22:03;23.07;;;3.67;;
16199;SDS011;8207;52.494;4.654;2023-03-14T09:24:30;21.43;;;4.10;;
16199;SDS011;8207;52.494;4.654;2023-03-14T09:26:57;20.13;;;3.70;;
16199;SDS011;8207;52.494;4.654;2023-03-14T09:29:24;19.57;;;3.97;;
16199;SDS011;8207;52.494;4.654;2023-03-14T09:31:51;19.00;;;4.00;;
16199;SDS011;8207;52.494;4.654;2023-03-14T09:34:19;19.10;;;3.67;;
16199;SDS011;8207;52.494;4.654;2023-03-14T09:36:46;23.13;;;4.30;;
16199;SDS011;8207;52.494;4.654;2023-03-14T09:39:13;19.13;;;4.77;;
16199;SDS011;8207;52.494;4.654;2023-03-14T09:41:41;20.00;;;4.90;;
16199;SDS011;8207;52.494;4.654;2023-03-14T09:44:11;25.90;;;5.13;;
16199;SDS011;8207;52.494;4.654;2023-03-14T09:46:42;22.67;;;4.73;;
16199;SDS011;8207;52.494;4.654;2023-03-14T09:49:17;22.10;;;4.70;;
16199;SDS011;8207;52.494;4.654;2023-03-14T09:51:50;17.33;;;4.17;;
16199;SDS011;8207;52.494;4.654;2023-03-14T09:54:34;23.43;;;4.63;;
16199;SDS011;8207;52.494;4.654;2023-03-14T09:57:03;14.63;;;3.10;;
16199;SDS011;8207;52.494;4.654;2023-03-14T09:59:32;20.53;;;4.27;;
16199;SDS011;8207;52.494;4.654;2023-03-14T10:02:01;19.97;;;3.70;;
16199;SDS011;8207;52.494;4.654;2023-03-14T10:04:41;17.17;;;3.87;;
16199;SDS011;8207;52.494;4.654;2023-03-14T10:07:11;19.33;;;3.67;;
16199;SDS011;8207;52.494;4.654;2023-03-14T10:09:42;20.97;;;3.13;;
16199;SDS011;8207;52.494;4.654;2023-03-14T10:12:10;12.40;;;3.23;;
16199;SDS011;8207;52.494;4.654;2023-03-14T10:14:38;11.63;;;3.27;;
16199;SDS011;8207;52.494;4.654;2023-03-14T10:17:12;14.60;;;3.30;;
16199;SDS011;8207;52.494;4.654;2023-03-14T10:19:51;20.07;;;3.90;;
16199;SDS011;8207;52.494;4.654;2023-03-14T10:22:19;17.97;;;2.73;;
16199;SDS011;8207;52.494;4.654;2023-03-14T10:24:49;9.77;;;2.57;;
16199;SDS011;8207;52.494;4.654;2023-03-14T10:27:19;14.50;;;3.33;;
16199;SDS011;8207;52.494;4.654;2023-03-14T10:29:52;11.90;;;3.00;;
16199;SDS011;8207;52.494;4.654;2023-03-14T10:32:21;16.60;;;3.67;;
16199;SDS011;8207;52.494;4.654;2023-03-14T10:35:17;18.87;;;2.97;;
16199;SDS011;8207;52.494;4.654;2023-03-14T10:37:53;17.03;;;3.33;;
16199;SDS011;8207;52.494;4.654;2023-03-14T10:40:24;12.23;;;2.60;;
16199;SDS011;8207;52.494;4.654;2023-03-14T10:42:54;13.27;;;2.40;;
16199;SDS011;8207;52.494;4.654;2023-03-14T10:45:33;14.67;;;2.83;;
16199;SDS011;8207;52.494;4.654;2023-03-14T10:48:06;9.67;;;2.20;;
16199;SDS011;8207;52.494;4.654;2023-03-14T10:50:49;13.50;;;2.93;;
16199;SDS011;8207;52.494;4.654;2023-03-14T10:53:21;12.60;;;2.67;;
16199;SDS011;8207;52.494;4.654;2023-03-14T10:55:49;19.90;;;5.93;;
16199;SDS011;8207;52.494;4.654;2023-03-14T10:58:20;15.10;;;3.83;;
16199;SDS011;8207;52.494;4.654;2023-03-14T11:00:50;10.40;;;2.57;;
16199;SDS011;8207;52.494;4.654;2023-03-14T11:03:24;12.17;;;2.73;;
16199;SDS011;8207;52.494;4.654;2023-03-14T11:05:55;14.77;;;3.00;;
16199;SDS011;8207;52.494;4.654;2023-03-14T11:08:25;10.93;;;2.50;;
16199;SDS011;8207;52.494;4.654;2023-03-14T11:10:59;13.97;;;2.00;;
16199;SDS011;8207;52.494;4.654;2023-03-14T11:13:38;19.07;;;3.87;;
16199;SDS011;8207;52.494;4.654;2023-03-14T11:16:14;10.33;;;2.70;;
16199;SDS011;8207;52.494;4.654;2023-03-14T11:18:51;8.63;;;2.10;;
16199;SDS011;8207;52.494;4.654;2023-03-14T11:21:31;7.43;;;2.43;;
16199;SDS011;8207;52.494;4.654;2023-03-14T11:24:06;9.50;;;3.00;;
16199;SDS011;8207;52.494;4.654;2023-03-14T11:26:47;9.43;;;2.00;;
16199;SDS011;8207;52.494;4.654;2023-03-14T11:29:20;11.57;;;2.10;;
16199;SDS011;8207;52.494;4.654;2023-03-14T11:31:48;8.93;;;2.10;;
16199;SDS011;8207;52.494;4.654;2023-03-14T11:34:16;10.93;;;2.40;;
16199;SDS011;8207;52.494;4.654;2023-03-14T11:36:48;11.80;;;2.03;;
16199;SDS011;8207;52.494;4.654;2023-03-14T11:39:19;9.33;;;2.17;;
16199;SDS011;8207;52.494;4.654;2023-03-14T11:41:47;14.67;;;2.50;;
16199;SDS011;8207;52.494;4.654;2023-03-14T11:44:17;9.33;;;2.97;;
16199;SDS011;8207;52.494;4.654;2023-03-14T11:46:47;8.27;;;2.47;;
16199;SDS011;8207;52.494;4.654;2023-03-14T11:49:22;13.00;;;2.87;;
16199;SDS011;8207;52.494;4.654;2023-03-14T11:51:58;8.57;;;2.10;;
16199;SDS011;8207;52.494;4.654;2023-03-14T11:54:31;9.90;;;1.90;;
16199;SDS011;8207;52.494;4.654;2023-03-14T11:57:03;10.40;;;1.77;;
16199;SDS011;8207;52.494;4.654;2023-03-14T11:59:33;10.40;;;2.80;;
16199;SDS011;8207;52.494;4.654;2023-03-14T12:02:09;5.43;;;1.77;;
16199;SDS011;8207;52.494;4.654;2023-03-14T12:04:48;11.33;;;2.10;;
16199;SDS011;8207;52.494;4.654;2023-03-14T12:07:32;11.87;;;1.83;;
16199;SDS011;8207;52.494;4.654;2023-03-14T12:10:06;11.37;;;1.93;;
16199;SDS011;8207;52.494;4.654;2023-03-14T12:12:33;6.23;;;1.60;;
16199;SDS011;8207;52.494;4.654;2023-03-14T12:15:00;10.10;;;2.07;;
16199;SDS011;8207;52.494;4.654;2023-03-14T12:17:34;9.07;;;2.13;;
16199;SDS011;8207;52.494;4.654;2023-03-14T12:20:04;4.80;;;1.80;;
16199;SDS011;8207;52.494;4.654;2023-03-14T12:22:34;8.07;;;2.00;;
16199;SDS011;8207;52.494;4.654;2023-03-14T12:25:04;5.93;;;1.67;;
16199;SDS011;8207;52.494;4.654;2023-03-14T12:27:44;8.47;;;1.70;;
16199;SDS011;8207;52.494;4.654;2023-03-14T12:30:26;8.33;;;2.03;;
16199;SDS011;8207;52.494;4.654;2023-03-14T12:39:20;11.50;;;2.40;;
16199;SDS011;8207;52.494;4.654;2023-03-14T12:42:01;14.73;;;2.30;;
16199;SDS011;8207;52.494;4.654;2023-03-14T12:44:45;8.10;;;1.93;;
16199;SDS011;8207;52.494;4.654;2023-03-14T12:50:22;6.83;;;2.10;;
16199;SDS011;8207;52.494;4.654;2023-03-14T12:52:56;12.50;;;2.17;;
16199;SDS011;8207;52.494;4.654;2023-03-14T12:55:51;6.40;;;1.60;;
16199;SDS011;8207;52.494;4.654;2023-03-14T12:58:24;6.10;;;1.60;;
16199;SDS011;8207;52.494;4.654;2023-03-14T13:00:59;7.90;;;1.97;;
16199;SDS011;8207;52.494;4.654;2023-03-14T13:03:36;10.37;;;2.20;;
16199;SDS011;8207;52.494;4.654;2023-03-14T13:06:08;11.73;;;2.80;;
16199;SDS011;8207;52.494;4.654;2023-03-14T13:08:37;6.47;;;1.50;;
16199;SDS011;8207;52.494;4.654;2023-03-14T13:11:09;6.40;;;1.53;;
16199;SDS011;8207;52.494;4.654;2023-03-14T13:13:41;8.13;;;1.47;;
16199;SDS011;8207;52.494;4.654;2023-03-14T13:16:12;9.80;;;2.30;;
16199;SDS011;8207;52.494;4.654;2023-03-14T13:18:43;6.00;;;1.23;;
16199;SDS011;8207;52.494;4.654;2023-03-14T13:21:12;7.00;;;1.67;;
16199;SDS011;8207;52.494;4.654;2023-03-14T13:26:35;8.40;;;1.70;;
16199;SDS011;8207;52.494;4.654;2023-03-14T13:29:08;4.63;;;1.63;;
16199;SDS011;8207;52.494;4.654;2023-03-14T13:31:43;11.63;;;2.23;;
16199;SDS011;8207;52.494;4.654;2023-03-14T13:34:11;7.80;;;1.50;;
16199;SDS011;8207;52.494;4.654;2023-03-14T13:36:37;8.83;;;1.67;;
16199;SDS011;8207;52.494;4.654;2023-03-14T13:39:06;8.57;;;1.90;;
16199;SDS011;8207;52.494;4.654;2023-03-14T13:41:40;6.43;;;1.80;;
16199;SDS011;8207;52.494;4.654;2023-03-14T13:44:08;6.73;;;1.60;;
16199;SDS011;8207;52.494;4.654;2023-03-14T13:46:42;10.37;;;2.10;;
16199;SDS011;8207;52.494;4.654;2023-03-14T13:49:09;14.03;;;1.90;;
16199;SDS011;8207;52.494;4.654;2023-03-14T13:51:39;8.47;;;1.60;;
16199;SDS011;8207;52.494;4.654;2023-03-14T13:54:12;7.27;;;1.90;;
16199;SDS011;8207;52.494;4.654;2023-03-14T13:56:41;12.13;;;2.27;;
16199;SDS011;8207;52.494;4.654;2023-03-14T13:59:20;9.73;;;1.83;;
16199;SDS011;8207;52.494;4.654;2023-03-14T14:01:48;8.13;;;1.70;;
16199;SDS011;8207;52.494;4.654;2023-03-14T14:04:16;6.17;;;1.70;;
16199;SDS011;8207;52.494;4.654;2023-03-14T14:06:47;3.97;;;1.40;;
16199;SDS011;8207;52.494;4.654;2023-03-14T14:09:17;6.00;;;1.57;;
16199;SDS011;8207;52.494;4.654;2023-03-14T14:11:48;6.43;;;1.50;;
16199;SDS011;8207;52.494;4.654;2023-03-14T14:14:21;6.43;;;1.30;;
16199;SDS011;8207;52.494;4.654;2023-03-14T14:16:52;7.13;;;1.80;;
16199;SDS011;8207;52.494;4.654;2023-03-14T14:19:19;9.27;;;1.40;;
16199;SDS011;8207;52.494;4.654;2023-03-14T14:21:50;11.30;;;2.27;;
16199;SDS011;8207;52.494;4.654;2023-03-14T14:24:17;9.80;;;1.90;;
16199;SDS011;8207;52.494;4.654;2023-03-14T14:26:58;7.50;;;2.47;;
16199;SDS011;8207;52.494;4.654;2023-03-14T14:29:27;6.03;;;2.13;;
16199;SDS011;8207;52.494;4.654;2023-03-14T14:32:02;7.40;;;1.97;;
16199;SDS011;8207;52.494;4.654;2023-03-14T14:34:41;6.87;;;1.50;;
16199;SDS011;8207;52.494;4.654;2023-03-14T14:37:21;9.60;;;1.60;;
16199;SDS011;8207;52.494;4.654;2023-03-14T14:39:51;5.57;;;2.00;;
16199;SDS011;8207;52.494;4.654;2023-03-14T14:42:21;14.00;;;3.83;;
16199;SDS011;8207;52.494;4.654;2023-03-14T14:44:52;12.97;;;2.40;;
16199;SDS011;8207;52.494;4.654;2023-03-14T14:47:20;11.13;;;1.90;;
16199;SDS011;8207;52.494;4.654;2023-03-14T14:49:48;11.33;;;2.60;;
16199;SDS011;8207;52.494;4.654;2023-03-14T14:52:18;7.80;;;1.90;;
16199;SDS011;8207;52.494;4.654;2023-03-14T14:54:47;13.07;;;2.43;;
16199;SDS011;8207;52.494;4.654;2023-03-14T14:57:22;10.77;;;1.93;;
16199;SDS011;8207;52.494;4.654;2023-03-14T14:59:50;11.13;;;2.80;;
16199;SDS011;8207;52.494;4.654;2023-03-14T15:02:27;11.47;;;2.13;;
16199;SDS011;8207;52.494;4.654;2023-03-14T15:04:56;10.67;;;1.87;;
16199;SDS011;8207;52.494;4.654;2023-03-14T15:07:23;5.30;;;2.10;;
16199;SDS011;8207;52.494;4.654;2023-03-14T15:09:50;11.83;;;2.17;;
16199;SDS011;8207;52.494;4.654;2023-03-14T15:12:17;10.97;;;2.27;;
16199;SDS011;8207;52.494;4.654;2023-03-14T15:14:46;9.93;;;2.50;;
16199;SDS011;8207;52.494;4.654;2023-03-14T15:17:13;6.70;;;1.80;;
16199;SDS011;8207;52.494;4.654;2023-03-14T15:19:40;7.27;;;1.80;;
16199;SDS011;8207;52.494;4.654;2023-03-14T15:22:09;10.77;;;1.90;;